TimeCDT,TemperatureF,Dew PointF,Humidity,Sea Level PressureIn,VisibilityMPH,Wind Direction,Wind SpeedMPH,Gust SpeedMPH,PrecipitationIn,Events,Conditions,WindDirDegrees,DateUTC
12:54 AM,62.1,53.1,72,30.13,10.0,NE,3.5,-,N/A,,Clear,40,2013-08-23 05:54:00
1:54 AM,59.0,53.1,81,30.14,10.0,ENE,5.8,-,N/A,,Clear,60,2013-08-23 06:54:00
2:54 AM,57.9,55.0,90,30.14,10.0,ENE,3.5,-,N/A,,Clear,70,2013-08-23 07:54:00
3:54 AM,57.9,55.0,90,30.15,10.0,East,8.1,-,N/A,,Clear,80,2013-08-23 08:54:00
4:54 AM,57.9,53.1,84,30.16,10.0,East,4.6,-,N/A,,Clear,100,2013-08-23 09:54:00
5:54 AM,57.9,53.1,84,30.18,10.0,ESE,3.5,-,N/A,,Mostly Cloudy,110,2013-08-23 10:54:00
6:22 AM,57.2,53.6,88,30.19,10.0,East,3.5,-,N/A,,Scattered Clouds,90,2013-08-23 11:22:00
6:54 AM,57.0,54.0,89,30.19,10.0,East,3.5,-,N/A,,Clear,100,2013-08-23 11:54:00
7:54 AM,62.1,54.0,75,30.19,10.0,ESE,8.1,-,N/A,,Clear,120,2013-08-23 12:54:00
8:54 AM,66.9,54.0,63,30.19,10.0,SE,9.2,-,N/A,,Clear,130,2013-08-23 13:54:00
9:54 AM,72.0,53.1,51,30.20,10.0,SSE,9.2,-,N/A,,Clear,160,2013-08-23 14:54:00
10:54 AM,75.9,53.1,45,30.19,10.0,SSE,10.4,-,N/A,,Clear,160,2013-08-23 15:54:00
11:35 AM,75.2,55.4,50,30.19,10.0,South,9.2,-,N/A,,Mostly Cloudy,170,2013-08-23 16:35:00
11:54 AM,77.0,55.0,47,30.18,10.0,South,8.1,-,N/A,,Overcast,170,2013-08-23 16:54:00
12:27 PM,78.8,57.2,47,30.19,10.0,South,9.2,-,N/A,,Scattered Clouds,190,2013-08-23 17:27:00
12:54 PM,79.0,59.0,50,30.17,10.0,South,9.2,-,N/A,,Partly Cloudy,170,2013-08-23 17:54:00
1:54 PM,82.0,59.0,45,30.16,10.0,SW,8.1,-,N/A,,Partly Cloudy,220,2013-08-23 18:54:00
2:54 PM,80.1,57.0,45,30.14,10.0,Variable,5.8,-,N/A,,Mostly Cloudy,0,2013-08-23 19:54:00
3:54 PM,82.9,57.0,41,30.12,10.0,SSE,9.2,-,N/A,,Partly Cloudy,150,2013-08-23 20:54:00
4:54 PM,84.0,57.0,40,30.12,10.0,SSW,8.1,-,N/A,,Mostly Cloudy,200,2013-08-23 21:54:00
5:54 PM,81.0,55.9,42,30.12,10.0,South,12.7,-,N/A,,Partly Cloudy,180,2013-08-23 22:54:00
6:54 PM,78.1,57.0,48,30.12,10.0,South,6.9,-,N/A,,Clear,190,2013-08-23 23:54:00
7:54 PM,72.0,57.0,59,30.12,10.0,SSW,3.5,-,N/A,,Clear,200,2013-08-24 00:54:00
8:54 PM,70.0,57.0,63,30.13,10.0,SSW,4.6,-,N/A,,Partly Cloudy,200,2013-08-24 01:54:00
9:54 PM,66.9,57.9,73,30.14,10.0,SSW,3.5,-,N/A,,Clear,200,2013-08-24 02:54:00
10:54 PM,66.0,57.0,73,30.14,10.0,Calm,Calm,-,N/A,,Clear,0,2013-08-24 03:54:00
11:54 PM,63.0,57.0,81,30.15,10.0,Calm,Calm,-,N/A,,Clear,0,2013-08-24 04:54:00